Time;durP1;ratioP1;P1;durP2;ratioP2;P2;SDS_P1;SDS_P2;PMS_P1;PMS_P2;Temp;Humidity;BMP_temperature;BMP_pressure;BME280_temperature;BME280_humidity;BME280_pressure;Samples;Min_cycle;Max_cycle;Signal;HPM_P1;HPM_P2
2021/06/25 00:00:14;;;;;;;9.82;7.35;;;;;;;;;;5042531;28;20193;-62
2021/06/25 00:02:40;;;;;;;14.77;8.00;;;;;;;;;;5042334;28;20300;-62
2021/06/25 00:05:07;;;;;;;10.25;8.43;;;;;;;;;;5045683;28;20666;-62
2021/06/25 00:07:32;;;;;;;10.18;9.18;;;;;;;;;;5041310;28;20227;-61
2021/06/25 00:09:57;;;;;;;12.43;8.93;;;;;;;;;;5035771;28;20194;-64
2021/06/25 00:12:22;;;;;;;9.60;8.60;;;;;;;;;;5038031;28;20201;-63
2021/06/25 00:14:48;;;;;;;10.73;9.45;;;;;;;;;;5041475;28;20650;-61
2021/06/25 00:17:13;;;;;;;13.40;10.32;;;;;;;;;;5041038;28;20210;-63
2021/06/25 00:19:39;;;;;;;12.85;10.80;;;;;;;;;;5040385;28;20198;-62
2021/06/25 00:22:04;;;;;;;14.57;11.30;;;;;;;;;;5040810;28;20226;-63
2021/06/25 00:24:30;;;;;;;14.15;12.65;;;;;;;;;;5039292;28;20209;-62
2021/06/25 00:26:55;;;;;;;17.05;13.05;;;;;;;;;;5038626;28;20189;-62
2021/06/25 00:29:21;;;;;;;14.82;13.30;;;;;;;;;;5044455;28;20186;-62
2021/06/25 00:31:47;;;;;;;14.13;12.80;;;;;;;;;;5041193;28;20189;-63
2021/06/25 00:34:12;;;;;;;14.05;12.75;;;;;;;;;;5040640;28;20592;-62
2021/06/25 00:36:37;;;;;;;15.27;13.30;;;;;;;;;;5025909;28;20225;-63
2021/06/25 00:39:03;;;;;;;13.80;12.45;;;;;;;;;;5039383;28;20178;-62
2021/06/25 00:41:29;;;;;;;14.88;13.35;;;;;;;;;;5033226;28;20191;-61
2021/06/25 00:43:54;;;;;;;14.98;13.48;;;;;;;;;;5044569;28;20219;-60
2021/06/25 00:46:20;;;;;;;14.65;13.25;;;;;;;;;;5027505;28;20647;-62
2021/06/25 00:48:45;;;;;;;15.15;13.60;;;;;;;;;;5040077;28;20265;-62
2021/06/25 00:51:11;;;;;;;14.73;13.43;;;;;;;;;;5044189;28;20194;-61
2021/06/25 00:53:40;;;;;;;14.77;13.27;;;;;;;;;;5046200;28;20197;-62
2021/06/25 00:56:05;;;;;;;15.13;13.30;;;;;;;;;;5041121;28;20276;-61
2021/06/25 00:58:30;;;;;;;14.93;13.40;;;;;;;;;;5040484;28;20610;-61
2021/06/25 01:00:56;;;;;;;18.48;14.48;;;;;;;;;;5043669;28;20674;-61
2021/06/25 01:03:21;;;;;;;15.40;13.88;;;;;;;;;;5039739;28;20225;-60
2021/06/25 01:05:46;;;;;;;15.80;13.73;;;;;;;;;;5056004;28;20213;-62
2021/06/25 01:08:12;;;;;;;20.23;14.65;;;;;;;;;;5044845;28;20189;-61
2021/06/25 01:10:40;;;;;;;15.63;14.02;;;;;;;;;;5044861;28;20190;-62
2021/06/25 01:13:06;;;;;;;17.55;13.73;;;;;;;;;;5032728;28;20617;-62
2021/06/25 01:15:31;;;;;;;16.30;14.43;;;;;;;;;;5046623;28;20191;-62
2021/06/25 01:17:57;;;;;;;15.65;14.05;;;;;;;;;;5047304;28;20202;-61
2021/06/25 01:20:25;;;;;;;15.93;13.75;;;;;;;;;;5021865;28;20206;-62
2021/06/25 01:22:50;;;;;;;14.88;13.55;;;;;;;;;;5045856;28;20198;-60
2021/06/25 01:25:18;;;;;;;15.30;13.82;;;;;;;;;;5041835;28;20215;-62
2021/06/25 01:27:48;;;;;;;14.90;13.30;;;;;;;;;;5044739;28;20184;-61
2021/06/25 01:30:20;;;;;;;19.90;13.82;;;;;;;;;;5041983;28;20645;-62
2021/06/25 01:32:47;;;;;;;14.45;13.15;;;;;;;;;;5038803;28;20183;-61
2021/06/25 01:35:13;;;;;;;15.40;13.90;;;;;;;;;;5040768;28;20643;-60
2021/06/25 01:37:39;;;;;;;15.27;13.80;;;;;;;;;;5037615;28;20202;-60
2021/06/25 01:40:06;;;;;;;16.48;14.77;;;;;;;;;;5033342;28;20197;-61
2021/06/25 01:42:33;;;;;;;15.52;13.73;;;;;;;;;;5044081;28;20238;-62
2021/06/25 01:45:04;;;;;;;17.58;13.68;;;;;;;;;;5044543;28;20205;-62
2021/06/25 01:47:29;;;;;;;15.32;13.80;;;;;;;;;;5045789;28;20251;-62
2021/06/25 01:49:55;;;;;;;15.38;13.85;;;;;;;;;;5049994;28;20724;-62
2021/06/25 01:52:20;;;;;;;14.48;12.95;;;;;;;;;;5045887;28;20186;-62
2021/06/25 01:54:47;;;;;;;15.13;13.63;;;;;;;;;;5035512;28;20206;-62
2021/06/25 01:57:13;;;;;;;17.63;13.52;;;;;;;;;;5046144;28;20240;-60
2021/06/25 01:59:38;;;;;;;16.25;14.57;;;;;;;;;;5044959;28;20191;-62
2021/06/25 02:02:04;;;;;;;16.48;14.88;;;;;;;;;;5039646;28;20189;-61
2021/06/25 02:04:29;;;;;;;19.00;14.27;;;;;;;;;;5044730;28;20212;-61
2021/06/25 02:06:55;;;;;;;14.70;13.20;;;;;;;;;;5049211;28;20243;-63
2021/06/25 02:09:20;;;;;;;17.25;14.70;;;;;;;;;;5044004;28;20208;-62
2021/06/25 02:11:46;;;;;;;16.27;14.48;;;;;;;;;;5045579;28;20233;-62
2021/06/25 02:14:11;;;;;;;17.15;15.43;;;;;;;;;;5046181;28;20237;-61
2021/06/25 02:16:37;;;;;;;16.13;14.32;;;;;;;;;;5024618;28;20733;-63
2021/06/25 02:19:02;;;;;;;14.70;13.40;;;;;;;;;;5015229;28;20253;-62
2021/06/25 02:21:28;;;;;;;16.80;14.45;;;;;;;;;;5041524;28;20645;-62
2021/06/25 02:23:54;;;;;;;16.83;14.23;;;;;;;;;;5045633;28;20202;-61
2021/06/25 02:26:19;;;;;;;15.60;14.00;;;;;;;;;;5045184;28;20190;-61
2021/06/25 02:28:45;;;;;;;18.55;13.73;;;;;;;;;;5037363;28;20588;-61
2021/06/25 02:31:10;;;;;;;16.83;13.55;;;;;;;;;;5042944;28;20289;-60
2021/06/25 02:33:35;;;;;;;12.73;11.50;;;;;;;;;;5045958;28;20217;-60
2021/06/25 02:36:00;;;;;;;12.18;11.07;;;;;;;;;;5030099;28;20248;-61
2021/06/25 02:38:26;;;;;;;13.45;12.13;;;;;;;;;;5042727;28;20202;-62
2021/06/25 02:40:51;;;;;;;13.15;11.80;;;;;;;;;;5043333;28;20197;-60
2021/06/25 02:43:16;;;;;;;13.57;11.95;;;;;;;;;;5043769;28;20214;-62
2021/06/25 02:45:42;;;;;;;13.50;12.20;;;;;;;;;;5039979;28;20693;-62
2021/06/25 02:48:07;;;;;;;16.15;11.98;;;;;;;;;;5042429;28;20182;-63
2021/06/25 02:50:32;;;;;;;12.60;11.23;;;;;;;;;;5045654;28;20261;-62
2021/06/25 02:52:58;;;;;;;14.10;11.95;;;;;;;;;;5049203;28;20225;-62
2021/06/25 02:55:23;;;;;;;12.07;10.93;;;;;;;;;;5055651;28;20194;-62
2021/06/25 02:57:49;;;;;;;13.50;12.18;;;;;;;;;;5052211;28;20206;-62
2021/06/25 03:00:16;;;;;;;13.57;12.00;;;;;;;;;;5047634;28;20220;-62
2021/06/25 03:02:42;;;;;;;13.00;10.95;;;;;;;;;;5046010;28;20251;-62
2021/06/25 03:05:08;;;;;;;12.35;11.15;;;;;;;;;;5044190;28;20546;-62
2021/06/25 03:07:33;;;;;;;14.13;11.50;;;;;;;;;;5048124;28;20205;-61
2021/06/25 03:09:59;;;;;;;13.15;11.40;;;;;;;;;;5046361;28;20217;-62
2021/06/25 03:12:24;;;;;;;12.55;11.25;;;;;;;;;;5043965;28;20197;-61
2021/06/25 03:14:49;;;;;;;12.80;11.60;;;;;;;;;;5044006;28;20218;-62
2021/06/25 03:17:15;;;;;;;12.93;11.63;;;;;;;;;;5041703;28;20279;-62
2021/06/25 03:19:40;;;;;;;14.70;12.23;;;;;;;;;;5048235;28;20189;-62
2021/06/25 03:22:06;;;;;;;13.23;11.93;;;;;;;;;;5045559;28;20185;-62
2021/06/25 03:24:31;;;;;;;14.65;12.48;;;;;;;;;;5044792;28;20745;-61
2021/06/25 03:26:57;;;;;;;12.90;11.70;;;;;;;;;;5046348;28;20186;-61
2021/06/25 03:29:22;;;;;;;13.13;11.93;;;;;;;;;;5047279;28;20188;-62
2021/06/25 03:31:47;;;;;;;13.88;12.32;;;;;;;;;;5048276;28;20189;-62
2021/06/25 03:34:13;;;;;;;12.85;11.43;;;;;;;;;;5030428;28;20220;-62
2021/06/25 03:36:38;;;;;;;15.05;11.77;;;;;;;;;;5029577;28;20220;-62
2021/06/25 03:39:05;;;;;;;14.40;12.85;;;;;;;;;;5042967;28;20194;-61
2021/06/25 03:41:30;;;;;;;18.48;13.55;;;;;;;;;;5045040;28;20186;-62
2021/06/25 03:43:55;;;;;;;15.30;13.65;;;;;;;;;;5025800;28;20213;-63
2021/06/25 03:46:22;;;;;;;16.85;13.70;;;;;;;;;;5048156;28;20182;-63
2021/06/25 03:48:47;;;;;;;15.70;14.05;;;;;;;;;;5045892;28;20193;-62
2021/06/25 03:51:13;;;;;;;15.68;14.15;;;;;;;;;;5047540;28;20178;-60
2021/06/25 03:53:38;;;;;;;16.17;13.90;;;;;;;;;;5043645;28;20208;-60
2021/06/25 03:56:12;;;;;;;16.35;14.73;;;;;;;;;;5030417;28;20202;-63
2021/06/25 03:58:42;;;;;;;16.77;14.40;;;;;;;;;;5035035;28;20186;-62
2021/06/25 04:01:08;;;;;;;16.58;14.80;;;;;;;;;;5044522;28;20186;-62
2021/06/25 04:03:35;;;;;;;16.77;14.88;;;;;;;;;;5046608;28;20202;-61
2021/06/25 04:06:00;;;;;;;17.58;15.85;;;;;;;;;;5048276;28;20308;-62
2021/06/25 04:08:27;;;;;;;16.77;15.05;;;;;;;;;;5045239;28;20273;-62
2021/06/25 04:10:53;;;;;;;20.38;16.02;;;;;;;;;;5044871;28;20192;-61
2021/06/25 04:13:18;;;;;;;17.25;15.05;;;;;;;;;;5044272;28;20213;-61
2021/06/25 04:15:44;;;;;;;18.77;14.90;;;;;;;;;;5022804;28;20564;-62
2021/06/25 04:18:09;;;;;;;17.35;13.82;;;;;;;;;;5047247;28;20186;-61
2021/06/25 04:20:34;;;;;;;17.65;14.57;;;;;;;;;;5027827;28;20665;-62
2021/06/25 04:23:00;;;;;;;16.15;14.27;;;;;;;;;;5045403;28;20293;-62
2021/06/25 04:25:25;;;;;;;15.80;14.27;;;;;;;;;;5041318;28;20588;-62
2021/06/25 04:27:51;;;;;;;15.75;14.15;;;;;;;;;;5031356;28;20407;-62
2021/06/25 04:30:17;;;;;;;14.38;12.55;;;;;;;;;;5043195;28;20265;-61
2021/06/25 04:32:43;;;;;;;14.65;12.50;;;;;;;;;;5028517;28;20273;-60
2021/06/25 04:35:09;;;;;;;13.35;12.15;;;;;;;;;;5040561;28;20279;-62
2021/06/25 04:37:34;;;;;;;12.73;11.38;;;;;;;;;;5026963;28;20841;-63
2021/06/25 04:40:00;;;;;;;13.70;12.40;;;;;;;;;;5043484;28;20644;-61
2021/06/25 04:42:25;;;;;;;15.18;11.82;;;;;;;;;;5042012;28;20202;-63
2021/06/25 04:44:50;;;;;;;15.27;11.30;;;;;;;;;;5045143;28;20221;-62
2021/06/25 04:47:16;;;;;;;13.50;11.57;;;;;;;;;;5044891;28;20626;-62
2021/06/25 04:49:41;;;;;;;12.15;10.18;;;;;;;;;;5044779;28;20646;-62
2021/06/25 04:52:07;;;;;;;15.35;11.48;;;;;;;;;;5046696;28;20208;-62
2021/06/25 04:54:33;;;;;;;12.93;11.63;;;;;;;;;;5041695;28;20229;-61
2021/06/25 04:56:59;;;;;;;12.55;11.23;;;;;;;;;;5040723;28;20264;-61
2021/06/25 04:59:24;;;;;;;12.50;11.18;;;;;;;;;;5040173;28;20636;-62
2021/06/25 05:01:50;;;;;;;11.95;10.77;;;;;;;;;;5044972;28;20772;-62
2021/06/25 05:04:15;;;;;;;13.32;10.88;;;;;;;;;;5023907;28;20630;-62
2021/06/25 05:06:40;;;;;;;15.52;11.38;;;;;;;;;;5038521;28;20194;-61
2021/06/25 05:09:06;;;;;;;17.55;12.05;;;;;;;;;;5041218;28;20272;-62
2021/06/25 05:11:31;;;;;;;13.45;12.10;;;;;;;;;;5040388;28;20182;-62
2021/06/25 05:13:56;;;;;;;12.88;11.52;;;;;;;;;;5035551;28;20245;-62
2021/06/25 05:16:21;;;;;;;13.32;11.55;;;;;;;;;;5042901;28;20673;-62
2021/06/25 05:18:47;;;;;;;19.60;11.38;;;;;;;;;;5041514;28;20202;-63
2021/06/25 05:21:12;;;;;;;12.02;10.82;;;;;;;;;;5063803;22;20300;-59
2021/06/25 05:23:37;;;;;;;11.60;10.40;;;;;;;;;;5034167;28;20696;-57
2021/06/25 05:26:03;;;;;;;11.40;10.35;;;;;;;;;;5044268;28;20186;-58
2021/06/25 05:28:28;;;;;;;11.70;10.50;;;;;;;;;;5019679;28;20221;-57
2021/06/25 05:30:54;;;;;;;11.98;10.88;;;;;;;;;;5027320;28;20221;-58
2021/06/25 05:33:19;;;;;;;11.98;9.30;;;;;;;;;;5045859;28;20194;-59
2021/06/25 05:35:44;;;;;;;12.52;10.18;;;;;;;;;;5043198;28;20228;-59
2021/06/25 05:38:13;;;;;;;11.50;10.32;;;;;;;;;;5030075;28;20189;-59
2021/06/25 05:40:40;;;;;;;10.82;9.57;;;;;;;;;;5044107;28;20209;-59
2021/06/25 05:43:06;;;;;;;11.60;10.30;;;;;;;;;;5028360;28;20702;-60
2021/06/25 05:45:33;;;;;;;12.05;9.98;;;;;;;;;;5030280;28;20555;-59
2021/06/25 05:47:58;;;;;;;13.82;10.50;;;;;;;;;;5038514;28;20190;-59
2021/06/25 05:50:24;;;;;;;11.10;9.93;;;;;;;;;;5021150;28;20217;-59
2021/06/25 05:52:49;;;;;;;12.18;9.75;;;;;;;;;;5041082;28;20235;-59
2021/06/25 05:55:15;;;;;;;12.07;10.40;;;;;;;;;;5043497;28;20205;-58
2021/06/25 05:57:42;;;;;;;12.35;11.05;;;;;;;;;;5043570;28;20230;-59
2021/06/25 06:00:08;;;;;;;11.25;9.43;;;;;;;;;;5044738;28;20207;-59
2021/06/25 06:02:34;;;;;;;11.25;9.15;;;;;;;;;;5044414;28;20553;-59
2021/06/25 06:04:59;;;;;;;11.10;9.35;;;;;;;;;;5040518;28;20190;-58
2021/06/25 06:07:25;;;;;;;13.98;10.18;;;;;;;;;;5038325;28;20186;-58
2021/06/25 06:09:52;;;;;;;10.38;9.10;;;;;;;;;;5042276;28;20689;-59
2021/06/25 06:12:17;;;;;;;11.90;9.50;;;;;;;;;;5040622;28;20576;-59
2021/06/25 06:14:43;;;;;;;10.90;9.63;;;;;;;;;;5021265;28;20247;-59
2021/06/25 06:17:08;;;;;;;12.00;9.80;;;;;;;;;;5025421;28;20331;-57
2021/06/25 06:19:42;;;;;;;11.38;9.43;;;;;;;;;;5043560;28;20178;-58
2021/06/25 06:33:09;;;;;;;13.23;10.35;;;;;;;;;;5037997;28;20213;-57
2021/06/25 06:35:37;;;;;;;11.32;9.77;;;;;;;;;;5033201;28;20179;-57
2021/06/25 06:38:04;;;;;;;10.82;9.73;;;;;;;;;;5042059;28;20210;-57
2021/06/25 06:40:30;;;;;;;13.52;10.35;;;;;;;;;;5041539;28;20201;-58
2021/06/25 06:42:56;;;;;;;11.43;10.32;;;;;;;;;;5039083;28;20633;-56
2021/06/25 06:45:21;;;;;;;11.70;10.00;;;;;;;;;;5037795;28;20223;-58
2021/06/25 06:47:47;;;;;;;10.88;9.88;;;;;;;;;;5041890;28;20642;-59
2021/06/25 06:50:12;;;;;;;12.90;9.93;;;;;;;;;;5035434;28;20688;-56
2021/06/25 06:52:42;;;;;;;11.40;10.15;;;;;;;;;;5033381;28;20193;-58
2021/06/25 06:55:09;;;;;;;12.98;10.40;;;;;;;;;;5035084;28;20278;-57
2021/06/25 06:57:34;;;;;;;11.02;9.93;;;;;;;;;;5033589;28;20226;-57
2021/06/25 06:59:59;;;;;;;12.05;9.38;;;;;;;;;;5034994;28;20408;-56
2021/06/25 07:02:25;;;;;;;11.57;10.43;;;;;;;;;;5040639;28;20209;-58
2021/06/25 07:04:50;;;;;;;15.20;10.50;;;;;;;;;;5027586;28;21160;-57
2021/06/25 07:07:15;;;;;;;14.07;10.65;;;;;;;;;;5046189;28;20452;-57
2021/06/25 07:09:41;;;;;;;12.35;11.05;;;;;;;;;;5041030;28;20200;-57
2021/06/25 07:12:06;;;;;;;11.40;10.30;;;;;;;;;;5042524;28;20202;-57
2021/06/25 07:14:32;;;;;;;11.10;10.00;;;;;;;;;;5029720;28;20243;-55
2021/06/25 07:16:58;;;;;;;11.60;10.45;;;;;;;;;;5023351;28;20233;-57
2021/06/25 07:19:23;;;;;;;12.77;10.25;;;;;;;;;;5045132;28;20190;-57
2021/06/25 07:21:49;;;;;;;11.35;10.32;;;;;;;;;;5038783;28;20221;-55
2021/06/25 07:24:14;;;;;;;11.90;10.70;;;;;;;;;;5027004;28;20189;-57
2021/06/25 07:26:39;;;;;;;11.73;10.55;;;;;;;;;;5046336;28;20178;-57
2021/06/25 07:29:05;;;;;;;11.93;10.35;;;;;;;;;;5040765;28;20247;-57
2021/06/25 07:31:30;;;;;;;12.10;10.98;;;;;;;;;;5037576;28;20210;-57
2021/06/25 07:33:55;;;;;;;12.52;11.23;;;;;;;;;;5046878;28;20186;-57
2021/06/25 07:36:21;;;;;;;12.45;11.05;;;;;;;;;;5036710;28;20349;-56
2021/06/25 07:38:49;;;;;;;11.45;10.45;;;;;;;;;;5049216;28;20561;-55
2021/06/25 07:41:14;;;;;;;11.18;10.05;;;;;;;;;;5045688;28;20201;-56
2021/06/25 07:43:39;;;;;;;12.23;10.40;;;;;;;;;;5012812;28;20243;-55
2021/06/25 07:46:05;;;;;;;11.25;10.18;;;;;;;;;;5036277;28;20186;-57
2021/06/25 07:48:30;;;;;;;11.10;9.98;;;;;;;;;;5047385;28;20195;-56
2021/06/25 07:50:55;;;;;;;12.50;11.15;;;;;;;;;;5036894;28;20740;-57
2021/06/25 07:53:21;;;;;;;10.88;9.38;;;;;;;;;;5045319;28;20261;-57
2021/06/25 07:55:46;;;;;;;10.98;9.88;;;;;;;;;;5050650;28;20182;-57
2021/06/25 07:58:13;;;;;;;15.00;10.73;;;;;;;;;;5049752;28;20327;-56
2021/06/25 08:00:40;;;;;;;13.20;10.32;;;;;;;;;;5042275;28;20231;-56
2021/06/25 08:03:05;;;;;;;10.52;9.32;;;;;;;;;;5029973;28;20654;-57
2021/06/25 08:05:30;;;;;;;11.45;9.32;;;;;;;;;;5031140;28;20189;-57
2021/06/25 08:07:56;;;;;;;10.65;9.45;;;;;;;;;;5049368;28;20174;-57
2021/06/25 08:10:22;;;;;;;11.30;10.18;;;;;;;;;;5014301;28;20193;-57
2021/06/25 08:12:47;;;;;;;11.98;9.93;;;;;;;;;;5025813;28;20201;-57
2021/06/25 08:15:13;;;;;;;11.85;10.50;;;;;;;;;;5028912;28;20189;-58
2021/06/25 08:17:38;;;;;;;12.38;10.93;;;;;;;;;;5010697;28;20214;-59
2021/06/25 08:20:05;;;;;;;11.93;10.82;;;;;;;;;;5040087;28;20272;-58
2021/06/25 08:22:30;;;;;;;11.27;10.18;;;;;;;;;;5025148;28;20189;-59
2021/06/25 08:24:56;;;;;;;11.52;10.35;;;;;;;;;;5043771;28;20186;-57
2021/06/25 08:27:21;;;;;;;15.63;11.35;;;;;;;;;;4993610;28;20950;-57
2021/06/25 08:29:46;;;;;;;13.10;11.50;;;;;;;;;;5036680;28;20191;-57
2021/06/25 08:32:12;;;;;;;12.63;11.32;;;;;;;;;;5045231;28;20564;-58
2021/06/25 08:34:37;;;;;;;14.05;12.20;;;;;;;;;;5045798;28;20182;-58
2021/06/25 08:37:03;;;;;;;12.50;11.30;;;;;;;;;;5043800;28;20229;-57
2021/06/25 08:39:30;;;;;;;13.50;11.85;;;;;;;;;;5045840;28;20190;-58
2021/06/25 08:41:55;;;;;;;13.68;11.38;;;;;;;;;;5041674;28;20776;-58
2021/06/25 08:44:21;;;;;;;13.05;11.93;;;;;;;;;;5045089;28;20218;-58
2021/06/25 08:46:47;;;;;;;15.75;12.02;;;;;;;;;;5048851;28;20621;-57
2021/06/25 08:49:17;;;;;;;13.75;12.43;;;;;;;;;;5042911;28;20178;-58
2021/06/25 08:51:44;;;;;;;13.50;12.10;;;;;;;;;;5040265;28;20723;-58
2021/06/25 08:54:10;;;;;;;14.35;12.82;;;;;;;;;;5044801;28;20611;-57
2021/06/25 08:56:35;;;;;;;14.20;12.80;;;;;;;;;;5042260;28;20190;-58
2021/06/25 08:59:01;;;;;;;14.18;12.68;;;;;;;;;;5040752;28;20671;-57
2021/06/25 09:01:31;;;;;;;13.50;12.02;;;;;;;;;;5038219;28;20252;-57
2021/06/25 09:03:56;;;;;;;13.63;11.90;;;;;;;;;;5041313;28;20179;-59
2021/06/25 09:06:21;;;;;;;16.20;14.25;;;;;;;;;;5030217;28;20188;-58
2021/06/25 09:08:47;;;;;;;13.75;12.05;;;;;;;;;;5047877;28;20268;-58
2021/06/25 09:11:21;;;;;;;14.52;13.02;;;;;;;;;;5045682;28;20209;-59
2021/06/25 09:13:46;;;;;;;15.70;13.98;;;;;;;;;;5021104;28;20646;-57
2021/06/25 09:16:29;;;;;;;17.25;15.27;;;;;;;;;;5046588;28;20217;-58
2021/06/25 09:18:56;;;;;;;18.15;14.32;;;;;;;;;;5042332;28;20197;-57
2021/06/25 09:21:22;;;;;;;14.85;13.25;;;;;;;;;;5046166;28;20705;-59
2021/06/25 09:23:47;;;;;;;16.35;14.07;;;;;;;;;;5026029;28;20198;-58
2021/06/25 09:26:15;;;;;;;14.63;13.07;;;;;;;;;;5046022;28;20198;-58
2021/06/25 09:28:45;;;;;;;16.33;14.02;;;;;;;;;;5029556;28;20236;-57
2021/06/25 09:31:22;;;;;;;20.83;13.95;;;;;;;;;;5039315;28;20312;-59
2021/06/25 09:33:57;;;;;;;17.50;15.68;;;;;;;;;;5041384;28;20519;-58
2021/06/25 09:36:30;;;;;;;16.48;14.65;;;;;;;;;;5044294;28;20206;-58
2021/06/25 09:39:10;;;;;;;18.00;16.20;;;;;;;;;;5037657;28;20653;-58
2021/06/25 09:41:41;;;;;;;15.23;13.73;;;;;;;;;;5039899;28;20211;-58
2021/06/25 09:44:10;;;;;;;15.38;13.77;;;;;;;;;;5045871;28;20712;-59
2021/06/25 09:46:38;;;;;;;14.82;13.43;;;;;;;;;;5041214;28;20185;-57
2021/06/25 09:49:06;;;;;;;15.35;13.82;;;;;;;;;;5042202;28;20682;-56
2021/06/25 09:51:32;;;;;;;18.17;14.60;;;;;;;;;;5028036;28;20211;-60
2021/06/25 09:54:05;;;;;;;16.08;14.48;;;;;;;;;;5038679;28;20270;-58
2021/06/25 09:56:32;;;;;;;19.40;16.77;;;;;;;;;;5026672;28;20211;-58
2021/06/25 10:02:20;;;;;;;19.33;16.50;;;;;;;;;;4963697;28;20669;-58
2021/06/25 10:04:50;;;;;;;17.17;15.23;;;;;;;;;;4963820;28;20334;-60
2021/06/25 10:07:20;;;;;;;17.27;15.32;;;;;;;;;;4996249;28;20248;-59
2021/06/25 10:09:48;;;;;;;17.15;15.35;;;;;;;;;;5037301;28;20204;-58
2021/06/25 10:12:17;;;;;;;17.55;15.75;;;;;;;;;;5037361;28;20301;-59
2021/06/25 10:14:43;;;;;;;18.27;16.15;;;;;;;;;;4990511;28;20194;-60
2021/06/25 10:17:09;;;;;;;18.20;16.35;;;;;;;;;;5041547;28;20251;-57
2021/06/25 10:19:41;;;;;;;18.52;16.45;;;;;;;;;;5042319;28;20238;-58
2021/06/25 10:22:10;;;;;;;19.42;17.33;;;;;;;;;;5036914;28;20213;-58
2021/06/25 10:24:36;;;;;;;21.65;18.90;;;;;;;;;;5041936;28;20252;-58
2021/06/25 10:27:03;;;;;;;21.13;17.20;;;;;;;;;;5040137;28;20654;-57
2021/06/25 10:29:32;;;;;;;22.73;18.10;;;;;;;;;;5041013;28;20190;-57
2021/06/25 10:32:00;;;;;;;19.83;17.73;;;;;;;;;;5038149;28;20292;-58
2021/06/25 10:34:26;;;;;;;20.50;17.70;;;;;;;;;;5041575;28;20206;-57
2021/06/25 10:36:51;;;;;;;24.00;19.00;;;;;;;;;;5040725;28;20299;-58
2021/06/25 10:39:17;;;;;;;22.35;18.80;;;;;;;;;;5045348;28;21802;-57
2021/06/25 10:41:57;;;;;;;21.38;19.17;;;;;;;;;;5026262;28;20198;-58
2021/06/25 10:44:40;;;;;;;20.70;18.63;;;;;;;;;;5041565;28;20189;-58
2021/06/25 10:47:25;;;;;;;21.25;18.13;;;;;;;;;;5028134;28;20181;-55
2021/06/25 10:50:07;;;;;;;20.60;18.60;;;;;;;;;;5040249;28;20206;-57
2021/06/25 10:52:36;;;;;;;21.13;18.92;;;;;;;;;;5036068;28;20193;-59
2021/06/25 10:55:06;;;;;;;22.42;20.02;;;;;;;;;;5038123;28;20190;-59
2021/06/25 10:57:33;;;;;;;19.05;17.05;;;;;;;;;;5039263;28;20213;-58
2021/06/25 10:59:58;;;;;;;20.58;18.50;;;;;;;;;;5042772;28;20206;-58
2021/06/25 11:02:40;;;;;;;20.88;18.77;;;;;;;;;;5043069;28;20253;-57
2021/06/25 11:05:25;;;;;;;18.35;16.50;;;;;;;;;;5039408;28;20192;-57
2021/06/25 11:08:18;;;;;;;19.92;17.92;;;;;;;;;;5043799;28;20205;-57
2021/06/25 11:10:52;;;;;;;18.17;16.30;;;;;;;;;;5040763;28;20202;-58
2021/06/25 11:13:21;;;;;;;17.90;16.20;;;;;;;;;;5043706;28;20703;-58
2021/06/25 11:15:49;;;;;;;18.05;16.33;;;;;;;;;;5042463;28;20293;-58
2021/06/25 11:18:18;;;;;;;18.38;16.48;;;;;;;;;;5041568;28;20203;-58
2021/06/25 11:20:58;;;;;;;17.33;15.57;;;;;;;;;;5044691;28;20205;-57
2021/06/25 11:23:26;;;;;;;17.15;15.65;;;;;;;;;;5048013;28;20182;-58
2021/06/25 11:25:59;;;;;;;16.45;15.00;;;;;;;;;;5045475;28;20205;-58
2021/06/25 11:28:33;;;;;;;16.38;14.80;;;;;;;;;;5045292;28;20236;-58
2021/06/25 11:31:11;;;;;;;16.85;15.07;;;;;;;;;;5041814;28;20304;-58
2021/06/25 11:36:26;;;;;;;17.67;15.88;;;;;;;;;;5044216;28;20210;-57
2021/06/25 11:38:58;;;;;;;17.10;15.40;;;;;;;;;;5043159;28;20208;-57
2021/06/25 11:41:26;;;;;;;17.52;15.80;;;;;;;;;;5049165;28;20256;-57
2021/06/25 11:43:52;;;;;;;17.75;15.75;;;;;;;;;;5027982;28;20278;-57
2021/06/25 11:46:18;;;;;;;19.20;16.45;;;;;;;;;;5025360;28;20281;-57
2021/06/25 11:48:44;;;;;;;18.23;16.45;;;;;;;;;;5046677;28;22431;-56
2021/06/25 11:51:12;;;;;;;19.02;17.02;;;;;;;;;;5001481;28;20293;-57
2021/06/25 11:53:41;;;;;;;18.55;16.60;;;;;;;;;;5045337;28;20190;-60
2021/06/25 11:56:06;;;;;;;19.23;17.27;;;;;;;;;;5041685;28;20228;-57
2021/06/25 11:58:31;;;;;;;18.00;16.13;;;;;;;;;;5031837;28;20677;-57
2021/06/25 12:01:02;;;;;;;21.45;19.17;;;;;;;;;;5028272;28;20214;-57
2021/06/25 12:03:27;;;;;;;18.08;16.23;;;;;;;;;;5029460;28;20186;-57
2021/06/25 12:06:04;;;;;;;19.88;17.85;;;;;;;;;;5047367;28;20253;-57
2021/06/25 12:08:29;;;;;;;19.17;17.02;;;;;;;;;;5043335;28;20231;-56
2021/06/25 12:10:55;;;;;;;20.92;18.83;;;;;;;;;;5041672;28;20694;-57
2021/06/25 12:13:20;;;;;;;18.17;16.27;;;;;;;;;;5039632;28;20194;-57
2021/06/25 12:15:48;;;;;;;18.02;16.23;;;;;;;;;;5038988;28;20187;-58
2021/06/25 12:18:24;;;;;;;25.88;18.08;;;;;;;;;;5039262;28;20638;-56
2021/06/25 12:21:07;;;;;;;18.25;16.05;;;;;;;;;;5026770;28;20305;-57
2021/06/25 12:23:33;;;;;;;19.35;17.45;;;;;;;;;;5049847;28;20199;-58
2021/06/25 12:25:58;;;;;;;19.38;17.48;;;;;;;;;;5043355;28;20185;-58
2021/06/25 12:28:24;;;;;;;19.65;17.08;;;;;;;;;;5044895;28;20638;-57
2021/06/25 12:30:52;;;;;;;19.55;16.83;;;;;;;;;;5043595;28;20264;-57
2021/06/25 12:33:24;;;;;;;18.02;16.23;;;;;;;;;;5040645;28;20209;-57
2021/06/25 12:35:51;;;;;;;19.50;17.33;;;;;;;;;;5051370;28;20227;-56
2021/06/25 12:38:19;;;;;;;17.48;15.60;;;;;;;;;;5031918;28;20244;-57
2021/06/25 12:40:45;;;;;;;19.58;17.05;;;;;;;;;;5012134;28;20211;-57
2021/06/25 12:43:14;;;;;;;17.85;16.05;;;;;;;;;;5045822;28;20217;-56
2021/06/25 12:45:45;;;;;;;18.65;15.90;;;;;;;;;;5028906;28;20237;-57
2021/06/25 12:48:14;;;;;;;17.80;15.98;;;;;;;;;;5043460;28;20186;-56
2021/06/25 12:50:41;;;;;;;18.65;16.88;;;;;;;;;;5044712;28;20206;-57
2021/06/25 12:53:19;;;;;;;19.10;15.90;;;;;;;;;;5040673;28;20239;-57
2021/06/25 12:55:46;;;;;;;18.02;16.13;;;;;;;;;;5027579;28;20186;-57
2021/06/25 12:58:13;;;;;;;18.60;16.52;;;;;;;;;;5044079;28;20219;-56
2021/06/25 13:00:40;;;;;;;19.80;14.65;;;;;;;;;;5031513;28;20231;-56
2021/06/25 13:03:07;;;;;;;20.20;16.10;;;;;;;;;;5046871;28;20185;-57
2021/06/25 13:05:34;;;;;;;18.52;15.82;;;;;;;;;;5043849;28;20189;-57
2021/06/25 13:08:00;;;;;;;17.77;15.88;;;;;;;;;;5047259;28;20182;-58
2021/06/25 13:10:27;;;;;;;17.65;15.63;;;;;;;;;;5045402;28;20221;-57
2021/06/25 13:12:52;;;;;;;18.48;14.55;;;;;;;;;;5048035;28;20186;-58
2021/06/25 13:15:18;;;;;;;14.73;13.18;;;;;;;;;;5043370;28;20688;-58
2021/06/25 13:17:44;;;;;;;15.85;14.25;;;;;;;;;;5047219;28;20218;-58
2021/06/25 13:20:19;;;;;;;16.52;14.98;;;;;;;;;;5044769;28;20658;-59
2021/06/25 13:23:09;;;;;;;18.58;15.95;;;;;;;;;;5045869;28;20194;-58
2021/06/25 13:25:51;;;;;;;20.17;18.08;;;;;;;;;;5036303;28;20197;-57
2021/06/25 13:28:16;;;;;;;17.38;15.55;;;;;;;;;;5033162;28;20174;-58
2021/06/25 13:30:41;;;;;;;17.65;15.80;;;;;;;;;;5040805;28;20793;-58
2021/06/25 13:33:09;;;;;;;18.23;16.23;;;;;;;;;;5039396;28;20277;-57
2021/06/25 13:35:38;;;;;;;18.67;16.88;;;;;;;;;;5029366;28;20189;-58
2021/06/25 13:38:24;;;;;;;18.85;17.00;;;;;;;;;;5031484;28;20264;-58
2021/06/25 13:41:01;;;;;;;20.13;18.17;;;;;;;;;;5047255;28;20553;-57
2021/06/25 13:43:26;;;;;;;19.48;17.58;;;;;;;;;;5043530;28;20189;-59
2021/06/25 13:46:23;;;;;;;20.48;18.40;;;;;;;;;;5043250;28;20197;-58
2021/06/25 13:49:08;;;;;;;18.58;16.80;;;;;;;;;;5044349;28;20190;-58
2021/06/25 13:51:37;;;;;;;21.17;19.17;;;;;;;;;;5043916;28;20225;-58
2021/06/25 13:54:17;;;;;;;20.42;18.52;;;;;;;;;;5045245;28;20189;-57
2021/06/25 13:56:42;;;;;;;19.35;17.45;;;;;;;;;;5027345;28;20612;-57
2021/06/25 13:59:09;;;;;;;20.75;18.55;;;;;;;;;;5046628;28;20186;-57
2021/06/25 14:01:45;;;;;;;21.25;17.20;;;;;;;;;;5046301;28;20686;-57
2021/06/25 14:04:18;;;;;;;19.17;17.38;;;;;;;;;;5043259;28;20201;-57
2021/06/25 14:06:51;;;;;;;18.48;16.58;;;;;;;;;;5046430;28;20178;-56
2021/06/25 14:09:21;;;;;;;19.65;17.60;;;;;;;;;;5044644;28;20190;-59
2021/06/25 14:11:47;;;;;;;19.05;16.90;;;;;;;;;;5043288;28;20284;-58
2021/06/25 14:14:12;;;;;;;16.90;15.25;;;;;;;;;;5042662;28;20260;-58
2021/06/25 14:16:40;;;;;;;18.10;16.40;;;;;;;;;;5029149;28;20281;-57
2021/06/25 14:19:08;;;;;;;20.50;18.42;;;;;;;;;;5043576;28;20218;-58
2021/06/25 14:21:35;;;;;;;33.45;21.05;;;;;;;;;;5043450;28;20241;-58
2021/06/25 14:24:02;;;;;;;20.25;18.35;;;;;;;;;;5047589;28;20185;-58
2021/06/25 14:26:28;;;;;;;17.73;16.02;;;;;;;;;;5045205;28;20232;-57
2021/06/25 14:28:55;;;;;;;25.40;17.48;;;;;;;;;;5029557;28;20182;-58
2021/06/25 14:31:22;;;;;;;19.75;15.85;;;;;;;;;;5044909;28;20209;-57
2021/06/25 14:33:47;;;;;;;18.10;16.10;;;;;;;;;;5050399;28;20609;-58
2021/06/25 14:36:13;;;;;;;17.10;15.40;;;;;;;;;;5044729;28;20225;-57